sensor_id;sensor_type;location;lat;lon;timestamp;temperature;humidity
20670;DHT22;10494;50.868;4.180;2022-08-19T00:01:53;20.00;99.90
20670;DHT22;10494;50.868;4.180;2022-08-19T00:04:26;20.20;99.90
20670;DHT22;10494;50.868;4.180;2022-08-19T00:06:53;20.30;99.90
20670;DHT22;10494;50.868;4.180;2022-08-19T00:09:20;20.30;99.90
20670;DHT22;10494;50.868;4.180;2022-08-19T00:11:46;20.40;99.90
20670;DHT22;10494;50.868;4.180;2022-08-19T00:14:15;20.50;99.90
20670;DHT22;10494;50.868;4.180;2022-08-19T00:16:42;20.50;99.90
20670;DHT22;10494;50.868;4.180;2022-08-19T00:19:09;20.60;99.90
20670;DHT22;10494;50.868;4.180;2022-08-19T00:21:34;20.70;99.90
20670;DHT22;10494;50.868;4.180;2022-08-19T00:24:05;20.70;99.90
20670;DHT22;10494;50.868;4.180;2022-08-19T00:26:31;20.70;99.90
20670;DHT22;10494;50.868;4.180;2022-08-19T00:28:57;20.80;99.90
20670;DHT22;10494;50.868;4.180;2022-08-19T00:31:22;20.70;99.90
20670;DHT22;10494;50.868;4.180;2022-08-19T00:33:48;20.70;99.90
20670;DHT22;10494;50.868;4.180;2022-08-19T00:36:17;20.70;99.90
20670;DHT22;10494;50.868;4.180;2022-08-19T00:38:43;20.60;99.90
20670;DHT22;10494;50.868;4.180;2022-08-19T00:41:12;20.50;99.90
20670;DHT22;10494;50.868;4.180;2022-08-19T00:43:38;20.50;99.90
20670;DHT22;10494;50.868;4.180;2022-08-19T00:46:04;20.40;99.90
20670;DHT22;10494;50.868;4.180;2022-08-19T00:48:31;20.30;99.90
20670;DHT22;10494;50.868;4.180;2022-08-19T00:50:58;20.30;99.90
20670;DHT22;10494;50.868;4.180;2022-08-19T00:53:26;20.20;99.90
20670;DHT22;10494;50.868;4.180;2022-08-19T00:55:55;20.10;99.90
20670;DHT22;10494;50.868;4.180;2022-08-19T00:58:26;20.00;99.90
20670;DHT22;10494;50.868;4.180;2022-08-19T01:00:53;19.90;99.90
20670;DHT22;10494;50.868;4.180;2022-08-19T01:03:20;19.90;99.90
20670;DHT22;10494;50.868;4.180;2022-08-19T01:05:47;19.80;99.90
20670;DHT22;10494;50.868;4.180;2022-08-19T01:08:15;19.80;99.90
20670;DHT22;10494;50.868;4.180;2022-08-19T01:10:46;19.70;99.90
20670;DHT22;10494;50.868;4.180;2022-08-19T01:13:15;19.60;99.90
20670;DHT22;10494;50.868;4.180;2022-08-19T01:15:52;19.50;99.90
20670;DHT22;10494;50.868;4.180;2022-08-19T01:18:19;19.40;99.90
20670;DHT22;10494;50.868;4.180;2022-08-19T01:20:46;19.30;99.90
20670;DHT22;10494;50.868;4.180;2022-08-19T01:23:12;19.30;99.90
20670;DHT22;10494;50.868;4.180;2022-08-19T01:25:47;19.30;99.90
20670;DHT22;10494;50.868;4.180;2022-08-19T01:28:20;19.20;99.90
20670;DHT22;10494;50.868;4.180;2022-08-19T01:30:46;19.20;99.90
20670;DHT22;10494;50.868;4.180;2022-08-19T01:33:13;19.20;99.90
20670;DHT22;10494;50.868;4.180;2022-08-19T01:35:39;19.10;99.90
20670;DHT22;10494;50.868;4.180;2022-08-19T01:38:07;19.10;99.90
20670;DHT22;10494;50.868;4.180;2022-08-19T01:40:35;19.00;99.90
20670;DHT22;10494;50.868;4.180;2022-08-19T01:43:02;19.00;99.90
20670;DHT22;10494;50.868;4.180;2022-08-19T01:45:30;19.00;99.90
20670;DHT22;10494;50.868;4.180;2022-08-19T01:47:56;19.00;99.90
20670;DHT22;10494;50.868;4.180;2022-08-19T01:50:23;19.10;99.90
20670;DHT22;10494;50.868;4.180;2022-08-19T01:52:48;19.20;99.90
20670;DHT22;10494;50.868;4.180;2022-08-19T01:55:17;19.10;99.90
20670;DHT22;10494;50.868;4.180;2022-08-19T01:57:47;19.10;99.90
20670;DHT22;10494;50.868;4.180;2022-08-19T02:00:16;19.00;99.90
20670;DHT22;10494;50.868;4.180;2022-08-19T02:02:42;19.00;99.90
20670;DHT22;10494;50.868;4.180;2022-08-19T02:05:09;19.00;99.90
20670;DHT22;10494;50.868;4.180;2022-08-19T02:07:36;19.00;99.90
20670;DHT22;10494;50.868;4.180;2022-08-19T02:10:04;18.90;99.90
20670;DHT22;10494;50.868;4.180;2022-08-19T02:12:30;18.90;99.90
20670;DHT22;10494;50.868;4.180;2022-08-19T02:14:55;19.00;99.90
20670;DHT22;10494;50.868;4.180;2022-08-19T02:17:21;19.00;99.90
20670;DHT22;10494;50.868;4.180;2022-08-19T02:19:46;18.90;99.90
20670;DHT22;10494;50.868;4.180;2022-08-19T02:22:14;18.70;99.90
20670;DHT22;10494;50.868;4.180;2022-08-19T02:24:40;18.70;99.90
20670;DHT22;10494;50.868;4.180;2022-08-19T02:27:05;18.70;99.90
20670;DHT22;10494;50.868;4.180;2022-08-19T02:29:31;18.70;99.90
20670;DHT22;10494;50.868;4.180;2022-08-19T02:31:57;18.70;99.90
20670;DHT22;10494;50.868;4.180;2022-08-19T02:34:23;18.70;99.90
20670;DHT22;10494;50.868;4.180;2022-08-19T02:36:50;18.70;99.90
20670;DHT22;10494;50.868;4.180;2022-08-19T02:39:16;18.60;99.90
20670;DHT22;10494;50.868;4.180;2022-08-19T02:41:42;18.60;99.90
20670;DHT22;10494;50.868;4.180;2022-08-19T02:44:07;18.60;99.90
20670;DHT22;10494;50.868;4.180;2022-08-19T02:46:34;18.50;99.90
20670;DHT22;10494;50.868;4.180;2022-08-19T02:49:05;18.50;99.90
20670;DHT22;10494;50.868;4.180;2022-08-19T02:51:37;18.50;99.90
20670;DHT22;10494;50.868;4.180;2022-08-19T02:54:04;18.50;99.90
20670;DHT22;10494;50.868;4.180;2022-08-19T02:56:30;18.50;99.90
20670;DHT22;10494;50.868;4.180;2022-08-19T02:58:56;18.40;99.90
20670;DHT22;10494;50.868;4.180;2022-08-19T03:01:30;18.30;99.90
20670;DHT22;10494;50.868;4.180;2022-08-19T03:03:59;18.30;99.90
20670;DHT22;10494;50.868;4.180;2022-08-19T03:06:27;18.30;99.90
20670;DHT22;10494;50.868;4.180;2022-08-19T03:08:53;18.30;99.90
20670;DHT22;10494;50.868;4.180;2022-08-19T03:11:24;18.30;99.90
20670;DHT22;10494;50.868;4.180;2022-08-19T03:13:51;18.30;99.90
20670;DHT22;10494;50.868;4.180;2022-08-19T03:16:21;18.30;99.90
20670;DHT22;10494;50.868;4.180;2022-08-19T03:18:47;18.20;99.90
20670;DHT22;10494;50.868;4.180;2022-08-19T03:21:22;18.20;99.90
20670;DHT22;10494;50.868;4.180;2022-08-19T03:23:49;18.10;99.90
20670;DHT22;10494;50.868;4.180;2022-08-19T03:26:15;18.10;99.90
20670;DHT22;10494;50.868;4.180;2022-08-19T03:28:42;18.10;99.90
20670;DHT22;10494;50.868;4.180;2022-08-19T03:31:11;18.10;99.90
20670;DHT22;10494;50.868;4.180;2022-08-19T03:33:38;18.00;99.90
20670;DHT22;10494;50.868;4.180;2022-08-19T03:36:15;17.90;99.90
20670;DHT22;10494;50.868;4.180;2022-08-19T03:38:44;18.00;99.90
20670;DHT22;10494;50.868;4.180;2022-08-19T03:41:14;18.00;99.90
20670;DHT22;10494;50.868;4.180;2022-08-19T03:43:41;17.90;99.90
20670;DHT22;10494;50.868;4.180;2022-08-19T03:46:13;17.90;99.90
20670;DHT22;10494;50.868;4.180;2022-08-19T03:48:40;17.90;99.90
20670;DHT22;10494;50.868;4.180;2022-08-19T03:51:07;17.80;99.90
20670;DHT22;10494;50.868;4.180;2022-08-19T03:53:34;17.80;99.90
20670;DHT22;10494;50.868;4.180;2022-08-19T03:56:01;17.80;99.90
20670;DHT22;10494;50.868;4.180;2022-08-19T03:58:28;17.80;99.90
20670;DHT22;10494;50.868;4.180;2022-08-19T04:00:55;17.70;99.90
20670;DHT22;10494;50.868;4.180;2022-08-19T04:03:22;17.70;99.90
20670;DHT22;10494;50.868;4.180;2022-08-19T04:05:47;17.70;99.90
20670;DHT22;10494;50.868;4.180;2022-08-19T04:08:14;17.70;99.90
20670;DHT22;10494;50.868;4.180;2022-08-19T04:10:46;17.80;99.90
20670;DHT22;10494;50.868;4.180;2022-08-19T04:13:12;17.80;99.90
20670;DHT22;10494;50.868;4.180;2022-08-19T04:15:42;17.50;99.90
20670;DHT22;10494;50.868;4.180;2022-08-19T04:18:09;17.50;99.90
20670;DHT22;10494;50.868;4.180;2022-08-19T04:20:46;17.50;99.90
20670;DHT22;10494;50.868;4.180;2022-08-19T04:23:13;17.50;99.90
20670;DHT22;10494;50.868;4.180;2022-08-19T04:25:41;17.50;99.90
20670;DHT22;10494;50.868;4.180;2022-08-19T04:28:09;17.60;99.90
20670;DHT22;10494;50.868;4.180;2022-08-19T04:30:54;17.50;99.90
20670;DHT22;10494;50.868;4.180;2022-08-19T04:33:23;17.50;99.90
20670;DHT22;10494;50.868;4.180;2022-08-19T04:35:50;17.50;99.90
20670;DHT22;10494;50.868;4.180;2022-08-19T04:38:17;17.40;99.90
20670;DHT22;10494;50.868;4.180;2022-08-19T04:40:46;17.40;99.90
20670;DHT22;10494;50.868;4.180;2022-08-19T04:43:32;17.30;99.90
20670;DHT22;10494;50.868;4.180;2022-08-19T04:45:58;17.30;99.90
20670;DHT22;10494;50.868;4.180;2022-08-19T04:48:24;17.40;99.90
20670;DHT22;10494;50.868;4.180;2022-08-19T04:50:57;17.40;99.90
20670;DHT22;10494;50.868;4.180;2022-08-19T04:53:25;17.40;99.90
20670;DHT22;10494;50.868;4.180;2022-08-19T04:55:52;17.30;99.90
20670;DHT22;10494;50.868;4.180;2022-08-19T04:58:17;17.40;99.90
20670;DHT22;10494;50.868;4.180;2022-08-19T05:00:43;17.40;99.90
20670;DHT22;10494;50.868;4.180;2022-08-19T05:03:09;17.40;99.90
20670;DHT22;10494;50.868;4.180;2022-08-19T05:05:40;17.40;99.90
20670;DHT22;10494;50.868;4.180;2022-08-19T05:08:06;17.40;99.90
20670;DHT22;10494;50.868;4.180;2022-08-19T05:10:35;17.40;99.90
20670;DHT22;10494;50.868;4.180;2022-08-19T05:13:02;17.40;99.90
20670;DHT22;10494;50.868;4.180;2022-08-19T05:15:28;17.40;99.90
20670;DHT22;10494;50.868;4.180;2022-08-19T05:17:53;17.40;99.90
20670;DHT22;10494;50.868;4.180;2022-08-19T05:20:38;17.40;99.90
20670;DHT22;10494;50.868;4.180;2022-08-19T05:23:22;17.40;99.90
20670;DHT22;10494;50.868;4.180;2022-08-19T05:25:48;17.50;99.90
20670;DHT22;10494;50.868;4.180;2022-08-19T05:28:13;17.50;99.90
20670;DHT22;10494;50.868;4.180;2022-08-19T05:30:39;17.50;99.90
20670;DHT22;10494;50.868;4.180;2022-08-19T05:33:06;17.50;99.90
20670;DHT22;10494;50.868;4.180;2022-08-19T05:35:36;17.60;99.90
20670;DHT22;10494;50.868;4.180;2022-08-19T05:38:03;17.60;99.90
20670;DHT22;10494;50.868;4.180;2022-08-19T05:40:28;17.60;99.90
20670;DHT22;10494;50.868;4.180;2022-08-19T05:42:54;17.70;99.90
20670;DHT22;10494;50.868;4.180;2022-08-19T05:45:20;17.80;99.90
20670;DHT22;10494;50.868;4.180;2022-08-19T05:47:47;17.90;99.90
20670;DHT22;10494;50.868;4.180;2022-08-19T05:50:13;17.90;99.90
20670;DHT22;10494;50.868;4.180;2022-08-19T05:52:39;18.00;99.90
20670;DHT22;10494;50.868;4.180;2022-08-19T05:55:05;18.00;99.90
20670;DHT22;10494;50.868;4.180;2022-08-19T05:57:31;18.10;99.90
20670;DHT22;10494;50.868;4.180;2022-08-19T05:59:57;18.20;99.90
20670;DHT22;10494;50.868;4.180;2022-08-19T06:02:29;18.40;99.90
20670;DHT22;10494;50.868;4.180;2022-08-19T06:04:55;18.40;99.90
20670;DHT22;10494;50.868;4.180;2022-08-19T06:07:21;18.60;99.90
20670;DHT22;10494;50.868;4.180;2022-08-19T06:09:47;18.70;99.90
20670;DHT22;10494;50.868;4.180;2022-08-19T06:12:12;18.80;99.90
20670;DHT22;10494;50.868;4.180;2022-08-19T06:14:38;18.80;99.90
20670;DHT22;10494;50.868;4.180;2022-08-19T06:17:04;18.80;99.90
20670;DHT22;10494;50.868;4.180;2022-08-19T06:19:30;18.90;99.90
20670;DHT22;10494;50.868;4.180;2022-08-19T06:21:57;19.10;99.90
20670;DHT22;10494;50.868;4.180;2022-08-19T06:24:26;19.20;99.90
20670;DHT22;10494;50.868;4.180;2022-08-19T06:26:54;19.50;99.90
20670;DHT22;10494;50.868;4.180;2022-08-19T06:29:22;19.60;99.90
20670;DHT22;10494;50.868;4.180;2022-08-19T06:31:49;19.80;99.90
20670;DHT22;10494;50.868;4.180;2022-08-19T06:34:16;19.90;99.90
20670;DHT22;10494;50.868;4.180;2022-08-19T06:36:45;19.70;99.90
20670;DHT22;10494;50.868;4.180;2022-08-19T06:39:23;19.90;99.90
20670;DHT22;10494;50.868;4.180;2022-08-19T06:41:52;19.90;99.90
20670;DHT22;10494;50.868;4.180;2022-08-19T06:44:19;20.20;99.90
20670;DHT22;10494;50.868;4.180;2022-08-19T06:46:45;20.40;99.90
20670;DHT22;10494;50.868;4.180;2022-08-19T06:49:11;20.50;99.90
20670;DHT22;10494;50.868;4.180;2022-08-19T06:51:47;20.50;99.90
20670;DHT22;10494;50.868;4.180;2022-08-19T06:54:14;20.50;99.90
20670;DHT22;10494;50.868;4.180;2022-08-19T06:56:40;20.50;99.90
20670;DHT22;10494;50.868;4.180;2022-08-19T06:59:17;20.70;99.90
20670;DHT22;10494;50.868;4.180;2022-08-19T07:01:46;20.80;99.90
20670;DHT22;10494;50.868;4.180;2022-08-19T07:04:15;20.90;99.90
20670;DHT22;10494;50.868;4.180;2022-08-19T07:06:41;21.10;99.90
20670;DHT22;10494;50.868;4.180;2022-08-19T07:09:08;21.40;99.90
20670;DHT22;10494;50.868;4.180;2022-08-19T07:11:33;21.60;99.90
20670;DHT22;10494;50.868;4.180;2022-08-19T07:14:00;21.70;99.90
20670;DHT22;10494;50.868;4.180;2022-08-19T07:16:26;21.70;99.90
20670;DHT22;10494;50.868;4.180;2022-08-19T07:18:53;21.60;99.90
20670;DHT22;10494;50.868;4.180;2022-08-19T07:21:22;21.70;99.90
20670;DHT22;10494;50.868;4.180;2022-08-19T07:23:48;21.80;99.90
20670;DHT22;10494;50.868;4.180;2022-08-19T07:26:21;22.20;99.90
20670;DHT22;10494;50.868;4.180;2022-08-19T07:28:48;22.40;99.90
20670;DHT22;10494;50.868;4.180;2022-08-19T07:31:17;22.20;99.90
20670;DHT22;10494;50.868;4.180;2022-08-19T07:33:47;22.30;99.90
20670;DHT22;10494;50.868;4.180;2022-08-19T07:36:15;22.20;99.90
20670;DHT22;10494;50.868;4.180;2022-08-19T07:38:43;22.20;99.90
20670;DHT22;10494;50.868;4.180;2022-08-19T07:41:12;22.20;99.90
20670;DHT22;10494;50.868;4.180;2022-08-19T07:43:39;22.00;99.90
20670;DHT22;10494;50.868;4.180;2022-08-19T07:46:06;21.90;99.90
20670;DHT22;10494;50.868;4.180;2022-08-19T07:48:32;21.80;99.90
20670;DHT22;10494;50.868;4.180;2022-08-19T07:51:00;21.80;99.90
20670;DHT22;10494;50.868;4.180;2022-08-19T07:53:28;21.80;99.90
20670;DHT22;10494;50.868;4.180;2022-08-19T07:55:55;22.00;99.90
20670;DHT22;10494;50.868;4.180;2022-08-19T07:58:22;22.00;99.90
20670;DHT22;10494;50.868;4.180;2022-08-19T08:00:49;22.20;99.90
20670;DHT22;10494;50.868;4.180;2022-08-19T08:03:17;22.10;99.90
20670;DHT22;10494;50.868;4.180;2022-08-19T08:05:44;22.30;99.90
20670;DHT22;10494;50.868;4.180;2022-08-19T08:08:28;22.60;99.90
20670;DHT22;10494;50.868;4.180;2022-08-19T08:11:17;22.90;99.90
20670;DHT22;10494;50.868;4.180;2022-08-19T08:13:43;22.90;99.90
20670;DHT22;10494;50.868;4.180;2022-08-19T08:16:09;22.80;99.90
20670;DHT22;10494;50.868;4.180;2022-08-19T08:18:35;22.90;99.90
20670;DHT22;10494;50.868;4.180;2022-08-19T08:21:07;22.90;99.90
20670;DHT22;10494;50.868;4.180;2022-08-19T08:23:33;23.00;99.90
20670;DHT22;10494;50.868;4.180;2022-08-19T08:25:59;22.80;99.90
20670;DHT22;10494;50.868;4.180;2022-08-19T08:28:26;22.70;99.90
20670;DHT22;10494;50.868;4.180;2022-08-19T08:30:52;22.70;99.90
20670;DHT22;10494;50.868;4.180;2022-08-19T08:33:21;22.70;99.90
20670;DHT22;10494;50.868;4.180;2022-08-19T08:35:47;22.80;99.90
20670;DHT22;10494;50.868;4.180;2022-08-19T08:38:13;22.80;99.90
20670;DHT22;10494;50.868;4.180;2022-08-19T08:45:47;22.60;99.90
20670;DHT22;10494;50.868;4.180;2022-08-19T08:48:22;22.60;99.90
20670;DHT22;10494;50.868;4.180;2022-08-19T08:50:53;22.50;99.90
20670;DHT22;10494;50.868;4.180;2022-08-19T08:53:20;22.60;99.90
20670;DHT22;10494;50.868;4.180;2022-08-19T08:55:46;22.90;99.90
20670;DHT22;10494;50.868;4.180;2022-08-19T08:58:36;23.20;99.90
20670;DHT22;10494;50.868;4.180;2022-08-19T09:01:09;23.60;99.90
20670;DHT22;10494;50.868;4.180;2022-08-19T09:03:37;23.60;99.90
20670;DHT22;10494;50.868;4.180;2022-08-19T09:06:11;23.50;99.90
20670;DHT22;10494;50.868;4.180;2022-08-19T09:14:12;23.60;99.90
20670;DHT22;10494;50.868;4.180;2022-08-19T09:16:41;23.60;99.90
20670;DHT22;10494;50.868;4.180;2022-08-19T09:19:07;23.90;99.90
20670;DHT22;10494;50.868;4.180;2022-08-19T09:21:34;24.20;99.90
20670;DHT22;10494;50.868;4.180;2022-08-19T09:24:01;24.10;99.90
20670;DHT22;10494;50.868;4.180;2022-08-19T09:26:27;24.30;99.90
20670;DHT22;10494;50.868;4.180;2022-08-19T09:28:53;24.20;99.90
20670;DHT22;10494;50.868;4.180;2022-08-19T09:31:24;24.10;99.90
20670;DHT22;10494;50.868;4.180;2022-08-19T09:33:51;23.80;99.90
20670;DHT22;10494;50.868;4.180;2022-08-19T09:36:19;23.60;99.90
20670;DHT22;10494;50.868;4.180;2022-08-19T09:38:45;23.50;99.90
20670;DHT22;10494;50.868;4.180;2022-08-19T09:41:17;23.40;99.90
20670;DHT22;10494;50.868;4.180;2022-08-19T09:43:49;23.40;99.90
20670;DHT22;10494;50.868;4.180;2022-08-19T09:46:18;23.60;99.90
20670;DHT22;10494;50.868;4.180;2022-08-19T09:48:44;23.60;99.90
20670;DHT22;10494;50.868;4.180;2022-08-19T09:51:13;23.50;99.90
20670;DHT22;10494;50.868;4.180;2022-08-19T09:53:42;23.50;99.90
20670;DHT22;10494;50.868;4.180;2022-08-19T09:56:09;23.30;99.90
20670;DHT22;10494;50.868;4.180;2022-08-19T09:58:35;23.30;99.90
20670;DHT22;10494;50.868;4.180;2022-08-19T10:01:01;23.30;99.90
20670;DHT22;10494;50.868;4.180;2022-08-19T10:03:29;23.30;99.90
20670;DHT22;10494;50.868;4.180;2022-08-19T10:05:56;23.40;99.90
20670;DHT22;10494;50.868;4.180;2022-08-19T10:08:27;23.60;99.90
20670;DHT22;10494;50.868;4.180;2022-08-19T10:10:53;23.90;99.90
20670;DHT22;10494;50.868;4.180;2022-08-19T10:13:22;23.80;99.90
20670;DHT22;10494;50.868;4.180;2022-08-19T10:15:49;23.70;99.90
20670;DHT22;10494;50.868;4.180;2022-08-19T10:18:20;23.50;99.90
20670;DHT22;10494;50.868;4.180;2022-08-19T10:20:47;23.50;99.90
20670;DHT22;10494;50.868;4.180;2022-08-19T10:23:13;23.40;99.90
20670;DHT22;10494;50.868;4.180;2022-08-19T10:25:41;23.40;99.90
20670;DHT22;10494;50.868;4.180;2022-08-19T10:28:07;23.30;99.90
20670;DHT22;10494;50.868;4.180;2022-08-19T10:30:34;23.40;99.90
20670;DHT22;10494;50.868;4.180;2022-08-19T10:33:00;23.50;99.90
20670;DHT22;10494;50.868;4.180;2022-08-19T10:35:26;23.40;99.90
20670;DHT22;10494;50.868;4.180;2022-08-19T10:37:53;23.70;99.90
20670;DHT22;10494;50.868;4.180;2022-08-19T10:40:19;24.00;99.90
20670;DHT22;10494;50.868;4.180;2022-08-19T10:42:44;24.40;99.90
20670;DHT22;10494;50.868;4.180;2022-08-19T10:45:10;24.70;99.90
20670;DHT22;10494;50.868;4.180;2022-08-19T10:47:36;24.80;99.90
20670;DHT22;10494;50.868;4.180;2022-08-19T10:50:03;25.10;99.90
20670;DHT22;10494;50.868;4.180;2022-08-19T10:52:48;25.40;99.90
20670;DHT22;10494;50.868;4.180;2022-08-19T10:55:15;25.70;99.90
20670;DHT22;10494;50.868;4.180;2022-08-19T10:57:59;25.70;99.90
20670;DHT22;10494;50.868;4.180;2022-08-19T11:00:25;25.60;99.90
20670;DHT22;10494;50.868;4.180;2022-08-19T11:02:51;25.40;99.90
20670;DHT22;10494;50.868;4.180;2022-08-19T11:05:17;25.00;99.90
20670;DHT22;10494;50.868;4.180;2022-08-19T11:07:43;24.90;99.90
20670;DHT22;10494;50.868;4.180;2022-08-19T11:10:11;25.00;99.90
20670;DHT22;10494;50.868;4.180;2022-08-19T11:12:39;24.80;99.90
20670;DHT22;10494;50.868;4.180;2022-08-19T11:15:07;24.90;99.90
20670;DHT22;10494;50.868;4.180;2022-08-19T11:17:34;24.80;99.90
20670;DHT22;10494;50.868;4.180;2022-08-19T11:20:01;24.70;99.90
20670;DHT22;10494;50.868;4.180;2022-08-19T11:22:28;24.60;99.90
20670;DHT22;10494;50.868;4.180;2022-08-19T11:24:53;24.60;99.90
20670;DHT22;10494;50.868;4.180;2022-08-19T11:27:20;24.70;99.90
20670;DHT22;10494;50.868;4.180;2022-08-19T11:29:46;24.90;99.90
20670;DHT22;10494;50.868;4.180;2022-08-19T11:32:12;24.80;99.90
20670;DHT22;10494;50.868;4.180;2022-08-19T11:34:38;24.80;99.90
20670;DHT22;10494;50.868;4.180;2022-08-19T11:37:04;24.80;99.90
20670;DHT22;10494;50.868;4.180;2022-08-19T11:39:32;25.10;99.90
20670;DHT22;10494;50.868;4.180;2022-08-19T11:41:58;25.20;99.90
20670;DHT22;10494;50.868;4.180;2022-08-19T11:44:25;25.60;99.90
20670;DHT22;10494;50.868;4.180;2022-08-19T11:46:51;25.90;99.90
20670;DHT22;10494;50.868;4.180;2022-08-19T11:49:19;25.80;99.90
20670;DHT22;10494;50.868;4.180;2022-08-19T11:51:46;25.80;99.90
20670;DHT22;10494;50.868;4.180;2022-08-19T11:54:13;26.10;99.90
20670;DHT22;10494;50.868;4.180;2022-08-19T11:56:41;26.10;99.90
20670;DHT22;10494;50.868;4.180;2022-08-19T11:59:07;26.10;99.90
20670;DHT22;10494;50.868;4.180;2022-08-19T12:01:33;26.10;99.90
20670;DHT22;10494;50.868;4.180;2022-08-19T12:03:59;26.20;99.90
20670;DHT22;10494;50.868;4.180;2022-08-19T12:06:27;26.20;99.90
20670;DHT22;10494;50.868;4.180;2022-08-19T12:08:55;26.20;99.90
20670;DHT22;10494;50.868;4.180;2022-08-19T12:11:21;26.20;99.90
20670;DHT22;10494;50.868;4.180;2022-08-19T12:13:46;26.30;99.90
20670;DHT22;10494;50.868;4.180;2022-08-19T12:16:19;26.30;99.90
20670;DHT22;10494;50.868;4.180;2022-08-19T12:18:45;26.30;99.90
20670;DHT22;10494;50.868;4.180;2022-08-19T12:21:16;26.50;99.90
20670;DHT22;10494;50.868;4.180;2022-08-19T12:23:43;26.60;99.90
20670;DHT22;10494;50.868;4.180;2022-08-19T12:26:10;26.70;99.90
20670;DHT22;10494;50.868;4.180;2022-08-19T12:28:36;26.50;99.90
20670;DHT22;10494;50.868;4.180;2022-08-19T12:31:02;26.50;99.90
20670;DHT22;10494;50.868;4.180;2022-08-19T12:33:28;26.50;99.90
20670;DHT22;10494;50.868;4.180;2022-08-19T12:35:54;26.50;99.90
20670;DHT22;10494;50.868;4.180;2022-08-19T12:38:20;26.60;99.90
20670;DHT22;10494;50.868;4.180;2022-08-19T12:40:49;26.40;99.90
20670;DHT22;10494;50.868;4.180;2022-08-19T12:43:17;26.60;99.90
20670;DHT22;10494;50.868;4.180;2022-08-19T12:45:43;26.50;99.90
20670;DHT22;10494;50.868;4.180;2022-08-19T12:48:10;26.60;99.90
20670;DHT22;10494;50.868;4.180;2022-08-19T12:50:39;26.70;99.90
20670;DHT22;10494;50.868;4.180;2022-08-19T12:53:05;26.90;99.90
20670;DHT22;10494;50.868;4.180;2022-08-19T12:55:30;27.20;99.90
20670;DHT22;10494;50.868;4.180;2022-08-19T12:57:57;27.10;99.90
20670;DHT22;10494;50.868;4.180;2022-08-19T13:00:23;27.00;99.90
20670;DHT22;10494;50.868;4.180;2022-08-19T13:02:51;26.80;99.90
20670;DHT22;10494;50.868;4.180;2022-08-19T13:05:20;26.70;99.90
20670;DHT22;10494;50.868;4.180;2022-08-19T13:07:48;26.70;99.90
20670;DHT22;10494;50.868;4.180;2022-08-19T13:10:16;26.80;99.90
20670;DHT22;10494;50.868;4.180;2022-08-19T13:12:44;27.00;99.90
20670;DHT22;10494;50.868;4.180;2022-08-19T13:15:10;26.90;99.90
20670;DHT22;10494;50.868;4.180;2022-08-19T13:17:36;27.00;99.90
20670;DHT22;10494;50.868;4.180;2022-08-19T13:20:03;26.90;99.90
20670;DHT22;10494;50.868;4.180;2022-08-19T13:22:29;26.90;99.90
20670;DHT22;10494;50.868;4.180;2022-08-19T13:24:54;27.10;99.90
20670;DHT22;10494;50.868;4.180;2022-08-19T13:27:20;27.20;99.90
20670;DHT22;10494;50.868;4.180;2022-08-19T13:29:46;27.60;99.90
20670;DHT22;10494;50.868;4.180;2022-08-19T13:32:30;27.70;99.90
20670;DHT22;10494;50.868;4.180;2022-08-19T13:35:16;27.90;99.90
20670;DHT22;10494;50.868;4.180;2022-08-19T13:37:42;27.80;99.90
20670;DHT22;10494;50.868;4.180;2022-08-19T13:40:10;27.50;99.90
20670;DHT22;10494;50.868;4.180;2022-08-19T13:42:42;27.40;99.90
20670;DHT22;10494;50.868;4.180;2022-08-19T13:45:09;26.90;99.90
20670;DHT22;10494;50.868;4.180;2022-08-19T13:47:36;26.00;99.90
20670;DHT22;10494;50.868;4.180;2022-08-19T13:50:10;25.20;99.90
20670;DHT22;10494;50.868;4.180;2022-08-19T13:52:37;24.40;99.90
20670;DHT22;10494;50.868;4.180;2022-08-19T13:55:03;23.90;99.90
20670;DHT22;10494;50.868;4.180;2022-08-19T13:57:30;23.50;99.90
20670;DHT22;10494;50.868;4.180;2022-08-19T13:59:57;23.30;99.90
20670;DHT22;10494;50.868;4.180;2022-08-19T14:02:23;23.10;99.90
20670;DHT22;10494;50.868;4.180;2022-08-19T14:04:49;22.90;99.90
20670;DHT22;10494;50.868;4.180;2022-08-19T14:07:14;22.80;99.90
20670;DHT22;10494;50.868;4.180;2022-08-19T14:09:40;22.90;99.90
20670;DHT22;10494;50.868;4.180;2022-08-19T14:12:06;23.10;99.90
20670;DHT22;10494;50.868;4.180;2022-08-19T14:14:31;23.10;99.90
20670;DHT22;10494;50.868;4.180;2022-08-19T14:16:57;23.00;99.90
20670;DHT22;10494;50.868;4.180;2022-08-19T14:19:23;23.20;99.90
20670;DHT22;10494;50.868;4.180;2022-08-19T14:21:49;23.60;99.90
20670;DHT22;10494;50.868;4.180;2022-08-19T14:24:15;23.70;99.90
20670;DHT22;10494;50.868;4.180;2022-08-19T14:26:41;23.90;99.90
20670;DHT22;10494;50.868;4.180;2022-08-19T14:29:06;23.70;99.90
20670;DHT22;10494;50.868;4.180;2022-08-19T14:31:32;23.60;99.90
20670;DHT22;10494;50.868;4.180;2022-08-19T14:33:58;23.60;99.90
20670;DHT22;10494;50.868;4.180;2022-08-19T14:36:23;23.70;99.90
20670;DHT22;10494;50.868;4.180;2022-08-19T14:38:49;24.20;99.90
20670;DHT22;10494;50.868;4.180;2022-08-19T14:41:20;24.40;99.90
20670;DHT22;10494;50.868;4.180;2022-08-19T14:43:50;24.60;99.90
20670;DHT22;10494;50.868;4.180;2022-08-19T14:46:20;24.80;99.90
20670;DHT22;10494;50.868;4.180;2022-08-19T14:48:46;25.00;99.90
20670;DHT22;10494;50.868;4.180;2022-08-19T14:51:13;25.10;99.90
20670;DHT22;10494;50.868;4.180;2022-08-19T14:53:40;25.10;99.90
20670;DHT22;10494;50.868;4.180;2022-08-19T14:56:11;25.20;99.90
20670;DHT22;10494;50.868;4.180;2022-08-19T14:58:38;25.20;99.90
20670;DHT22;10494;50.868;4.180;2022-08-19T15:01:06;25.10;99.90
20670;DHT22;10494;50.868;4.180;2022-08-19T15:03:32;24.80;99.90
20670;DHT22;10494;50.868;4.180;2022-08-19T15:05:59;24.90;99.90
20670;DHT22;10494;50.868;4.180;2022-08-19T15:08:27;25.00;99.90
20670;DHT22;10494;50.868;4.180;2022-08-19T15:10:55;25.10;99.90
20670;DHT22;10494;50.868;4.180;2022-08-19T15:13:21;25.30;99.90
20670;DHT22;10494;50.868;4.180;2022-08-19T15:15:48;25.30;99.90
20670;DHT22;10494;50.868;4.180;2022-08-19T15:18:14;25.30;99.90
20670;DHT22;10494;50.868;4.180;2022-08-19T15:20:39;25.30;99.90
20670;DHT22;10494;50.868;4.180;2022-08-19T15:23:07;25.30;99.90
20670;DHT22;10494;50.868;4.180;2022-08-19T15:25:32;25.30;99.90
20670;DHT22;10494;50.868;4.180;2022-08-19T15:27:59;25.30;99.90
20670;DHT22;10494;50.868;4.180;2022-08-19T15:30:27;25.40;99.90
20670;DHT22;10494;50.868;4.180;2022-08-19T15:32:55;25.10;99.90
20670;DHT22;10494;50.868;4.180;2022-08-19T15:35:22;24.60;99.90
20670;DHT22;10494;50.868;4.180;2022-08-19T15:37:49;24.20;99.90
20670;DHT22;10494;50.868;4.180;2022-08-19T15:40:17;23.90;99.90
20670;DHT22;10494;50.868;4.180;2022-08-19T15:42:43;23.70;99.90
20670;DHT22;10494;50.868;4.180;2022-08-19T15:45:11;23.60;99.90